^^
Your Local Weather - Clay, NY Station Historical Data
Daily Summary for July 14, 2017 Units:  English    Metric   Both
« Previous Day
Next Day »
Daily Weekly Monthly Yearly Custom
  High: Low: Average:
Temperature: 81.7 °F 65.1 °F 71 °F
Dew Point: 73.8 °F 62.8 °F 66.7 °F
Humidity: 94% 69% 87%
Wind Speed: 6.0mph 0.0mph 1.2mph
Wind Gust: 11.0mph - -
Wind- - SSE
Pressure: 29.96 in 29.84 in -
Precipitation: 0.26 in    
Historical Graphs
 
 
Tabular Data for July 14, 2017
Time Temperature Dew Point Pressure Wind Wind Speed Wind Gust Humidity Rainfall Rate (Hourly) solar
00:02 65.1 °F 63.0 °F 29.96 in Calm     93% 0.00 in 0 W/m2
00:08 65.2 °F 62.8 °F 29.96 in SSE 1.0 mph 2.0 mph 92% 0.00 in 0 W/m2
00:14 65.2 °F 62.8 °F 29.96 in SSE 1.0 mph 2.0 mph 92% 0.00 in 0 W/m2
00:20 65.3 °F 62.9 °F 29.96 in Calm     92% 0.00 in 0 W/m2
00:26 65.3 °F 62.9 °F 29.95 in SSE 1.0 mph 2.0 mph 92% 0.00 in 0 W/m2
00:32 65.4 °F 63.0 °F 29.95 in Calm   1.0 mph 92% 0.00 in 0 W/m2
00:38 65.4 °F 63.0 °F 29.95 in Calm   1.0 mph 92% 0.00 in 0 W/m2
00:44 65.4 °F 63.0 °F 29.95 in Calm     92% 0.00 in 0 W/m2
00:50 65.4 °F 63.0 °F 29.94 in Calm   3.0 mph 92% 0.00 in 0 W/m2
00:56 65.4 °F 63.0 °F 29.94 in ENE 1.0 mph 3.0 mph 92% 0.00 in 0 W/m2
01:02 65.4 °F 63.0 °F 29.94 in SSE 1.0 mph 1.0 mph 92% 0.00 in 0 W/m2
01:08 65.5 °F 63.1 °F 29.94 in Calm   1.0 mph 92% 0.00 in 0 W/m2
01:14 65.5 °F 63.1 °F 29.95 in Calm     92% 0.00 in 0 W/m2
01:20 65.6 °F 63.2 °F 29.94 in Calm     92% 0.00 in 0 W/m2
01:26 65.6 °F 63.2 °F 29.95 in Calm     92% 0.00 in 0 W/m2
01:32 65.7 °F 63.3 °F 29.95 in Calm     92% 0.00 in 0 W/m2
01:38 65.7 °F 63.3 °F 29.95 in Calm     92% 0.00 in 0 W/m2
01:44 65.7 °F 63.3 °F 29.95 in Calm     92% 0.00 in 0 W/m2
01:50 65.7 °F 63.3 °F 29.95 in Calm   1.0 mph 92% 0.00 in 0 W/m2
01:56 65.7 °F 63.3 °F 29.94 in Calm   1.0 mph 92% 0.00 in 0 W/m2
02:02 65.7 °F 63.3 °F 29.94 in Calm     92% 0.00 in 0 W/m2
02:08 65.6 °F 63.2 °F 29.94 in Calm     92% 0.00 in 0 W/m2
02:14 65.6 °F 63.2 °F 29.94 in East 1.0 mph 1.0 mph 92% 0.00 in 0 W/m2
02:20 65.6 °F 63.2 °F 29.94 in Calm   1.0 mph 92% 0.00 in 0 W/m2
02:26 65.6 °F 63.2 °F 29.94 in Calm   1.0 mph 92% 0.00 in 0 W/m2
02:32 65.7 °F 63.6 °F 29.93 in Calm   1.0 mph 93% 0.00 in 0 W/m2
02:38 65.7 °F 63.6 °F 29.93 in ENE 1.0 mph 3.0 mph 93% 0.00 in 0 W/m2
02:44 65.8 °F 63.7 °F 29.93 in ESE 1.0 mph 2.0 mph 93% 0.00 in 0 W/m2
02:50 65.8 °F 63.7 °F 29.93 in Calm   1.0 mph 93% 0.00 in 0 W/m2
02:56 65.8 °F 63.7 °F 29.93 in East 1.0 mph 1.0 mph 93% 0.00 in 0 W/m2
03:02 65.9 °F 63.8 °F 29.93 in East 1.0 mph 2.0 mph 93% 0.00 in 0 W/m2
03:08 66.0 °F 63.9 °F 29.93 in East 1.0 mph 2.0 mph 93% 0.00 in 0 W/m2
03:14 66.0 °F 63.9 °F 29.93 in Calm   1.0 mph 93% 0.00 in 0 W/m2
03:20 66.0 °F 63.9 °F 29.93 in Calm     93% 0.00 in 0 W/m2
03:26 66.1 °F 64.0 °F 29.94 in Calm   1.0 mph 93% 0.00 in 0 W/m2
03:32 66.1 °F 64.0 °F 29.94 in Calm     93% 0.00 in 0 W/m2
03:38 66.1 °F 64.0 °F 29.94 in East 1.0 mph 2.0 mph 93% 0.55 in 0 W/m2
03:44 66.1 °F 64.0 °F 29.93 in East 1.0 mph 2.0 mph 93% 0.09 in 0 W/m2
03:50 66.1 °F 64.0 °F 29.94 in South 2.0 mph 3.0 mph 93% 0.05 in 0 W/m2
03:56 66.1 °F 64.0 °F 29.94 in SSE 2.0 mph 3.0 mph 93% 0.05 in 0 W/m2
04:02 66.0 °F 63.9 °F 29.93 in SSE 1.0 mph 1.0 mph 93% 0.04 in 0 W/m2
04:08 66.0 °F 63.9 °F 29.93 in ENE 1.0 mph 1.0 mph 93% 0.00 in 0 W/m2
04:14 66.0 °F 63.9 °F 29.93 in ESE 1.0 mph 6.0 mph 93% 0.00 in 0 W/m2
04:20 66.0 °F 63.9 °F 29.93 in ENE 1.0 mph 1.0 mph 93% 0.00 in 0 W/m2
04:26 66.0 °F 63.9 °F 29.93 in East 1.0 mph 2.0 mph 93% 0.00 in 0 W/m2
04:32 66.0 °F 63.9 °F 29.93 in East 1.0 mph 3.0 mph 93% 0.00 in 0 W/m2
04:38 65.9 °F 64.1 °F 29.93 in ENE 1.0 mph 3.0 mph 94% 0.00 in 0 W/m2
04:44 65.9 °F 64.1 °F 29.92 in ENE 1.0 mph 1.0 mph 94% 0.00 in 0 W/m2
04:50 65.9 °F 64.1 °F 29.92 in ENE 1.0 mph 1.0 mph 94% 0.00 in 0 W/m2
04:56 65.9 °F 64.1 °F 29.92 in ENE 1.0 mph 1.0 mph 94% 0.00 in 0 W/m2
05:02 65.9 °F 64.1 °F 29.92 in East 1.0 mph 2.0 mph 94% 0.00 in 0 W/m2
05:08 65.9 °F 64.1 °F 29.92 in East 1.0 mph 2.0 mph 94% 0.00 in 0 W/m2
05:14 65.9 °F 64.1 °F 29.92 in Calm   1.0 mph 94% 0.00 in 0 W/m2
05:20 65.9 °F 64.1 °F 29.92 in East 1.0 mph 3.0 mph 94% 0.00 in 0 W/m2
05:26 65.9 °F 64.1 °F 29.92 in ESE 1.0 mph 3.0 mph 94% 0.00 in 0 W/m2
05:32 65.9 °F 64.1 °F 29.92 in ENE 1.0 mph 2.0 mph 94% 0.00 in 0 W/m2
05:38 65.8 °F 64.0 °F 29.92 in East 1.0 mph 2.0 mph 94% 0.00 in 0 W/m2
05:44 65.8 °F 64.0 °F 29.92 in East 1.0 mph 5.0 mph 94% 0.00 in 0 W/m2
05:50 65.8 °F 64.0 °F 29.92 in East 1.0 mph 1.0 mph 94% 0.00 in 0 W/m2
05:56 65.8 °F 64.0 °F 29.93 in ENE 1.0 mph 1.0 mph 94% 0.00 in 0 W/m2
06:02 65.8 °F 64.0 °F 29.93 in ENE 1.0 mph 1.0 mph 94% 0.00 in 5 W/m2
06:08 65.9 °F 64.1 °F 29.93 in Calm   1.0 mph 94% 0.00 in 0 W/m2
06:14 65.9 °F 64.1 °F 29.93 in ENE 1.0 mph 5.0 mph 94% 0.00 in 5 W/m2
06:20 65.9 °F 64.1 °F 29.92 in East 1.0 mph 2.0 mph 94% 0.00 in 11 W/m2
06:26 66.0 °F 64.2 °F 29.92 in ENE 1.0 mph 4.0 mph 94% 0.00 in 19 W/m2
06:32 66.0 °F 64.2 °F 29.92 in East 1.0 mph 3.0 mph 94% 0.00 in 25 W/m2
06:38 66.1 °F 64.3 °F 29.92 in ESE 1.0 mph 3.0 mph 94% 0.00 in 39 W/m2
06:44 66.1 °F 64.3 °F 29.93 in ENE 1.0 mph 2.0 mph 94% 0.00 in 39 W/m2
06:50 66.2 °F 64.4 °F 29.93 in East 1.0 mph 1.0 mph 94% 0.00 in 28 W/m2
06:56 66.3 °F 64.5 °F 29.92 in Calm   1.0 mph 94% 0.00 in 44 W/m2
07:02 66.3 °F 64.5 °F 29.93 in East 1.0 mph 2.0 mph 94% 0.00 in 42 W/m2
07:08 66.3 °F 64.5 °F 29.93 in SE 1.0 mph 2.0 mph 94% 0.00 in 30 W/m2
07:14 66.3 °F 64.5 °F 29.92 in SE 1.0 mph 1.0 mph 94% 0.00 in 47 W/m2
07:20 66.4 °F 64.6 °F 29.92 in Calm   3.0 mph 94% 0.00 in 77 W/m2
07:26 66.4 °F 64.6 °F 29.92 in ENE 1.0 mph 3.0 mph 94% 0.00 in 74 W/m2
07:32 66.4 °F 64.6 °F 29.92 in East 1.0 mph 2.0 mph 94% 0.00 in 62 W/m2
07:38 66.5 °F 64.7 °F 29.92 in NE 1.0 mph 2.0 mph 94% 0.00 in 90 W/m2
07:44 66.7 °F 64.9 °F 29.92 in ENE 1.0 mph 2.0 mph 94% 0.00 in 95 W/m2
07:50 66.9 °F 65.1 °F 29.92 in ESE 1.0 mph 2.0 mph 94% 0.00 in 149 W/m2
07:56 67.4 °F 65.6 °F 29.92 in East 1.0 mph 2.0 mph 94% 0.00 in 190 W/m2
08:02 67.6 °F 65.8 °F 29.92 in East 1.0 mph 1.0 mph 94% 0.00 in 90 W/m2
08:08 67.6 °F 65.8 °F 29.92 in SE 1.0 mph 4.0 mph 94% 0.00 in 109 W/m2
08:14 67.7 °F 65.9 °F 29.92 in SE 1.0 mph 1.0 mph 94% 0.00 in 160 W/m2
08:20 68.2 °F 66.4 °F 29.91 in Calm   1.0 mph 94% 0.00 in 116 W/m2
08:26 68.2 °F 66.4 °F 29.92 in SE 1.0 mph 1.0 mph 94% 0.00 in 113 W/m2
08:32 68.4 °F 66.6 °F 29.92 in East 1.0 mph 1.0 mph 94% 0.00 in 195 W/m2
08:38 68.7 °F 66.6 °F 29.92 in East 1.0 mph 3.0 mph 93% 0.00 in 336 W/m2
08:44 69.2 °F 67.1 °F 29.92 in SSE 1.0 mph 3.0 mph 93% 0.00 in 257 W/m2
08:50 69.7 °F 67.6 °F 29.91 in SSE 1.0 mph 1.0 mph 93% 0.00 in 378 W/m2
08:56 70.0 °F 67.6 °F 29.91 in Calm   2.0 mph 92% 0.00 in 139 W/m2
09:02 70.1 °F 67.3 °F 29.91 in ESE 1.0 mph 1.0 mph 91% 0.00 in 193 W/m2
09:08 70.4 °F 67.6 °F 29.91 in Calm   2.0 mph 91% 0.00 in 278 W/m2
09:14 71.0 °F 68.2 °F 29.91 in ENE 1.0 mph 1.0 mph 91% 0.00 in 348 W/m2
09:20 71.4 °F 68.0 °F 29.91 in SE 1.0 mph 1.0 mph 89% 0.00 in 267 W/m2
09:26 71.8 °F 68.4 °F 29.91 in SSE 1.0 mph 3.0 mph 89% 0.00 in 548 W/m2
09:32 71.8 °F 67.7 °F 29.91 in SE 1.0 mph 1.0 mph 87% 0.00 in 176 W/m2
09:38 72.2 °F 68.4 °F 29.91 in SE 1.0 mph 3.0 mph 88% 0.00 in 399 W/m2
09:44 72.3 °F 68.2 °F 29.91 in SE 1.0 mph 2.0 mph 87% 0.00 in 258 W/m2
09:50 72.7 °F 68.6 °F 29.91 in SE 1.0 mph 1.0 mph 87% 0.00 in 446 W/m2
09:56 73.2 °F 68.8 °F 29.91 in ENE 1.0 mph 3.0 mph 86% 0.00 in 262 W/m2
10:02 74.0 °F 69.5 °F 29.91 in SE 1.0 mph 5.0 mph 86% 0.00 in 492 W/m2
10:08 74.7 °F 69.9 °F 29.91 in SE 1.0 mph 5.0 mph 85% 0.00 in 420 W/m2
10:14 75.0 °F 70.2 °F 29.91 in SSE 1.0 mph 4.0 mph 85% 0.00 in 265 W/m2
10:20 75.1 °F 69.9 °F 29.91 in ENE 1.0 mph 1.0 mph 84% 0.00 in 311 W/m2
10:26 75.6 °F 70.1 °F 29.91 in Calm   2.0 mph 83% 0.00 in 204 W/m2
10:32 75.4 °F 70.6 °F 29.90 in ENE 1.0 mph 3.0 mph 85% 0.00 in 392 W/m2
10:38 76.0 °F 70.8 °F 29.90 in SE 1.0 mph 3.0 mph 84% 0.00 in 418 W/m2
10:44 76.6 °F 71.0 °F 29.90 in Calm   1.0 mph 83% 0.00 in 285 W/m2
10:50 76.8 °F 71.2 °F 29.90 in Calm   1.0 mph 83% 0.00 in 288 W/m2
10:56 76.9 °F 71.0 °F 29.90 in Calm   2.0 mph 82% 0.00 in 148 W/m2
11:02 77.2 °F 71.6 °F 29.90 in SSE 1.0 mph 1.0 mph 83% 0.00 in 339 W/m2
11:08 78.1 °F 71.4 °F 29.90 in SSW 2.0 mph 3.0 mph 80% 0.00 in 401 W/m2
11:14 78.4 °F 71.7 °F 29.90 in SSW 3.0 mph 6.0 mph 80% 0.00 in 269 W/m2
11:20 79.0 °F 72.3 °F 29.90 in SSE 4.0 mph 9.0 mph 80% 0.00 in 714 W/m2
11:26 79.6 °F 71.8 °F 29.90 in South 3.0 mph 9.0 mph 77% 0.00 in 316 W/m2
11:32 79.8 °F 72.3 °F 29.89 in SE 4.0 mph 8.0 mph 78% 0.00 in 860 W/m2
11:38 79.8 °F 71.2 °F 29.89 in SSW 5.0 mph 8.0 mph 75% 0.00 in 410 W/m2
11:44 79.9 °F 72.4 °F 29.88 in SSE 4.0 mph 6.0 mph 78% 0.00 in 434 W/m2
11:50 80.5 °F 71.8 °F 29.88 in SSE 4.0 mph 6.0 mph 75% 0.00 in 464 W/m2
11:56 80.5 °F 71.8 °F 29.88 in SE 5.0 mph 6.0 mph 75% 0.00 in 937 W/m2
12:02 81.1 °F 71.6 °F 29.88 in SW 6.0 mph 6.0 mph 73% 0.00 in 524 W/m2
12:08 81.2 °F 71.7 °F 29.88 in SW 5.0 mph 7.0 mph 73% 0.00 in 476 W/m2
12:14 81.7 °F 72.2 °F 29.87 in SSE 4.0 mph 5.0 mph 73% 0.00 in 364 W/m2
12:20 81.5 °F 71.6 °F 29.87 in SW 5.0 mph 6.0 mph 72% 0.00 in 902 W/m2
12:26 80.8 °F 71.3 °F 29.87 in SE 4.0 mph 6.0 mph 73% 0.00 in 218 W/m2
12:32 81.4 °F 71.9 °F 29.86 in South 4.0 mph 6.0 mph 73% 0.00 in 1129 W/m2
12:38 81.6 °F 72.1 °F 29.86 in SE 5.0 mph 11.0 mph 73% 0.00 in 659 W/m2
12:44 81.2 °F 71.7 °F 29.86 in SSW 6.0 mph 8.0 mph 73% 0.00 in 313 W/m2
12:50 81.4 °F 72.3 °F 29.86 in SSW 5.0 mph 9.0 mph 74% 0.00 in 436 W/m2
12:56 81.4 °F 71.9 °F 29.85 in South 5.0 mph 9.0 mph 73% 0.00 in 621 W/m2
13:02 81.4 °F 71.9 °F 29.85 in South 5.0 mph 6.0 mph 73% 0.00 in 645 W/m2
13:08 81.1 °F 71.2 °F 29.85 in SW 5.0 mph 8.0 mph 72% 0.00 in 276 W/m2
13:14 80.9 °F 71.4 °F 29.85 in SW 5.0 mph 7.0 mph 73% 0.00 in 596 W/m2
13:20 81.6 °F 71.3 °F 29.85 in SW 5.0 mph 5.0 mph 71% 0.00 in 411 W/m2
13:26 81.5 °F 70.3 °F 29.85 in SW 5.0 mph 6.0 mph 69% 0.00 in 276 W/m2
13:32 80.9 °F 70.6 °F 29.85 in South 6.0 mph 7.0 mph 71% 0.00 in 156 W/m2
13:38 80.4 °F 70.1 °F 29.85 in SW 5.0 mph 8.0 mph 71% 0.00 in 165 W/m2
13:44 80.2 °F 70.4 °F 29.84 in SSW 4.0 mph 4.0 mph 72% 0.00 in 178 W/m2
13:50 80.2 °F 70.4 °F 29.85 in SW 4.0 mph 4.0 mph 72% 0.00 in 192 W/m2
13:56 80.4 °F 70.9 °F 29.85 in SSE 2.0 mph 4.0 mph 73% 0.00 in 192 W/m2
14:02 80.5 °F 71.0 °F 29.85 in West 1.0 mph 1.0 mph 73% 0.00 in 135 W/m2
14:08 79.6 °F 71.0 °F 29.85 in NW 2.0 mph 4.0 mph 75% 0.00 in 54 W/m2
14:14 77.7 °F 70.3 °F 29.85 in North 3.0 mph 4.0 mph 78% 0.00 in 49 W/m2
14:20 76.4 °F 69.8 °F 29.85 in North 3.0 mph 4.0 mph 80% 0.00 in 111 W/m2
14:26 75.8 °F 69.6 °F 29.85 in NNE 2.0 mph 4.0 mph 81% 0.00 in 155 W/m2
14:32 75.6 °F 69.4 °F 29.86 in NNE 2.0 mph 2.0 mph 81% 0.00 in 72 W/m2
14:38 75.7 °F 70.2 °F 29.86 in NNE 1.0 mph 2.0 mph 83% 1.42 in 37 W/m2
14:44 75.3 °F 70.5 °F 29.87 in Calm   1.0 mph 85% 0.94 in 169 W/m2
14:50 75.0 °F 71.5 °F 29.86 in NNE 1.0 mph 2.0 mph 89% 0.32 in 366 W/m2
14:56 75.8 °F 72.3 °F 29.85 in NNW 2.0 mph 2.0 mph 89% 0.08 in 940 W/m2
15:02 76.6 °F 72.4 °F 29.86 in NNE 3.0 mph 3.0 mph 87% 0.04 in 482 W/m2
15:08 77.1 °F 72.6 °F 29.86 in NNE 2.0 mph 3.0 mph 86% 0.00 in 415 W/m2
15:14 76.9 °F 72.0 °F 29.86 in NNE 1.0 mph 2.0 mph 85% 0.00 in 142 W/m2
15:20 76.7 °F 72.2 °F 29.85 in NNE 1.0 mph 1.0 mph 86% 0.00 in 292 W/m2
15:26 76.8 °F 72.6 °F 29.85 in NW 1.0 mph 3.0 mph 87% 0.00 in 425 W/m2
15:32 77.5 °F 73.3 °F 29.84 in NNE 2.0 mph 4.0 mph 87% 0.00 in 919 W/m2
15:38 78.3 °F 73.8 °F 29.85 in WNW 2.0 mph 4.0 mph 86% 0.00 in 763 W/m2
15:44 78.1 °F 72.9 °F 29.85 in North 1.0 mph 2.0 mph 84% 0.00 in 207 W/m2
15:50 77.8 °F 72.9 °F 29.85 in NNE 2.0 mph 2.0 mph 85% 0.00 in 907 W/m2
15:56 78.7 °F 72.4 °F 29.85 in North 2.0 mph 3.0 mph 81% 0.00 in 251 W/m2
16:02 77.9 °F 72.0 °F 29.85 in NW 1.0 mph 2.0 mph 82% 0.00 in 163 W/m2
16:08 77.6 °F 72.0 °F 29.85 in NNW 1.0 mph 2.0 mph 83% 0.00 in 279 W/m2
16:14 77.3 °F 72.4 °F 29.85 in North 2.0 mph 3.0 mph 85% 0.00 in 826 W/m2
16:20 77.6 °F 72.0 °F 29.85 in NW 2.0 mph 2.0 mph 83% 0.00 in 258 W/m2
16:26 77.7 °F 71.4 °F 29.85 in NW 1.0 mph 2.0 mph 81% 0.00 in 353 W/m2
16:32 78.9 °F 72.2 °F 29.86 in NW 1.0 mph 1.0 mph 80% 0.00 in 301 W/m2
16:38 78.4 °F 71.3 °F 29.86 in NW 1.0 mph 2.0 mph 79% 0.00 in 155 W/m2
16:44 77.8 °F 70.8 °F 29.86 in NW 1.0 mph 1.0 mph 79% 0.00 in 195 W/m2
17:33 74.4 °F 68.2 °F 29.88 in SW 2.0 mph 2.0 mph 81% 0.00 in 193 W/m2
17:39 74.5 °F 68.3 °F 29.88 in NW 1.0 mph 6.0 mph 81% 0.00 in 192 W/m2
17:45 74.3 °F 67.7 °F 29.88 in West 2.0 mph 7.0 mph 80% 0.00 in 207 W/m2
17:52 74.3 °F 68.1 °F 29.88 in NW 2.0 mph 7.0 mph 81% 0.00 in 213 W/m2
17:58 74.2 °F 67.6 °F 29.88 in WNW 2.0 mph 3.0 mph 80% 0.00 in 186 W/m2
18:08 74.2 °F 68.0 °F 29.87 in NNW 2.0 mph 3.0 mph 81% 0.00 in 148 W/m2
18:13 74.2 °F 67.6 °F 29.87 in NW 2.0 mph 3.0 mph 80% 0.00 in 88 W/m2
18:19 74.1 °F 67.2 °F 29.88 in NW 2.0 mph 2.0 mph 79% 0.00 in 69 W/m2
18:28 73.8 °F 66.5 °F 29.88 in WNW 2.0 mph 4.0 mph 78% 0.00 in 65 W/m2
18:33 73.7 °F 66.4 °F 29.88 in NW 3.0 mph 4.0 mph 78% 0.00 in 62 W/m2
18:40 73.6 °F 66.7 °F 29.88 in WNW 2.0 mph 2.0 mph 79% 0.00 in 53 W/m2
18:45 73.5 °F 66.9 °F 29.88 in NW 2.0 mph 5.0 mph 80% 0.00 in 51 W/m2
18:52 73.4 °F 66.5 °F 29.88 in NW 2.0 mph 2.0 mph 79% 0.00 in 51 W/m2
18:58 73.3 °F 66.8 °F 29.88 in WNW 1.0 mph 2.0 mph 80% 0.00 in 49 W/m2
19:03 73.3 °F 66.8 °F 29.88 in NW 1.0 mph 2.0 mph 80% 0.00 in 44 W/m2
19:09 73.2 °F 66.7 °F 29.88 in NW 1.0 mph 1.0 mph 80% 0.00 in 39 W/m2
19:18 73.0 °F 66.1 °F 29.88 in NNW 1.0 mph 2.0 mph 79% 0.00 in 42 W/m2
19:24 72.8 °F 65.9 °F 29.88 in NNW 1.0 mph 2.0 mph 79% 0.00 in 40 W/m2
19:29 72.7 °F 65.8 °F 29.88 in Calm     79% 0.00 in 35 W/m2
19:35 72.6 °F 66.1 °F 29.88 in Calm   1.0 mph 80% 0.00 in 32 W/m2
19:42 72.4 °F 65.9 °F 29.88 in Calm   1.0 mph 80% 0.00 in 30 W/m2
19:48 72.2 °F 65.7 °F 29.88 in NNW 1.0 mph 1.0 mph 80% 0.00 in 26 W/m2
19:53 72.0 °F 65.8 °F 29.88 in SW 1.0 mph 1.0 mph 81% 0.00 in 23 W/m2
19:59 71.8 °F 65.7 °F 29.88 in Calm     81% 0.00 in 23 W/m2
20:05 71.5 °F 65.7 °F 29.88 in Calm   3.0 mph 82% 0.00 in 19 W/m2
20:12 71.1 °F 65.3 °F 29.88 in Calm     82% 0.00 in 16 W/m2
20:18 70.9 °F 65.5 °F 29.88 in Calm     83% 0.00 in 12 W/m2
20:23 70.7 °F 65.3 °F 29.88 in Calm     83% 0.00 in 11 W/m2
20:29 70.4 °F 65.3 °F 29.88 in Calm     84% 0.00 in 7 W/m2
20:35 70.2 °F 65.1 °F 29.88 in Calm     84% 0.00 in 5 W/m2
20:41 70.0 °F 64.9 °F 29.88 in Calm     84% 0.00 in 0 W/m2
20:48 69.7 °F 65.0 °F 29.88 in Calm     85% 0.00 in 0 W/m2
20:53 69.5 °F 65.1 °F 29.88 in Calm     86% 0.00 in 0 W/m2
20:59 69.2 °F 64.5 °F 29.89 in Calm     85% 0.00 in 0 W/m2
21:05 69.0 °F 64.6 °F 29.89 in Calm     86% 0.00 in 0 W/m2
21:12 68.8 °F 64.8 °F 29.89 in Calm     87% 0.00 in 0 W/m2
21:18 68.0 °F 64.3 °F 29.89 in Calm     88% 0.00 in 0 W/m2
21:23 67.6 °F 64.2 °F 29.88 in Calm     89% 0.00 in 0 W/m2
21:29 67.3 °F 64.3 °F 29.89 in Calm     90% 0.00 in 0 W/m2
21:36 67.1 °F 64.1 °F 29.89 in Calm     90% 0.00 in 0 W/m2
21:42 66.8 °F 63.8 °F 29.90 in Calm     90% 0.00 in 0 W/m2
21:48 66.5 °F 63.5 °F 29.89 in Calm     90% 0.00 in 0 W/m2
21:53 66.3 °F 63.3 °F 29.89 in Calm     90% 0.00 in 0 W/m2
22:00 66.1 °F 63.4 °F 29.89 in Calm     91% 0.00 in 0 W/m2
22:05 66.0 °F 63.3 °F 29.89 in Calm     91% 0.00 in 0 W/m2
22:12 65.8 °F 63.1 °F 29.89 in Calm     91% 0.00 in 0 W/m2
22:18 65.6 °F 62.9 °F 29.90 in Calm     91% 0.00 in 0 W/m2
22:23 65.6 °F 63.2 °F 29.90 in Calm     92% 0.00 in 0 W/m2
22:29 65.6 °F 63.2 °F 29.90 in Calm     92% 0.00 in 0 W/m2
22:36 65.5 °F 63.1 °F 29.90 in Calm     92% 0.00 in 0 W/m2
22:41 65.4 °F 63.0 °F 29.90 in Calm     92% 0.00 in 0 W/m2
22:48 65.4 °F 63.0 °F 29.90 in Calm     92% 0.00 in 0 W/m2
22:54 65.4 °F 63.3 °F 29.90 in Calm     93% 0.00 in 0 W/m2
22:59 65.7 °F 63.6 °F 29.90 in Calm     93% 0.00 in 0 W/m2
23:05 65.7 °F 63.6 °F 29.90 in Calm     93% 0.00 in 0 W/m2
23:12 65.7 °F 63.6 °F 29.90 in Calm     93% 0.00 in 0 W/m2
23:18 65.8 °F 63.7 °F 29.90 in Calm     93% 0.00 in 0 W/m2
23:23 66.2 °F 64.1 °F 29.91 in Calm     93% 0.00 in 0 W/m2
23:30 66.4 °F 64.3 °F 29.90 in Calm     93% 0.00 in 0 W/m2
23:35 66.5 °F 64.4 °F 29.90 in Calm     93% 0.00 in 0 W/m2
23:42 66.6 °F 64.5 °F 29.89 in Calm     93% 0.00 in 0 W/m2
23:48 66.5 °F 64.4 °F 29.89 in Calm     93% 0.00 in 0 W/m2
23:53 66.5 °F 64.4 °F 29.89 in Calm     93% 0.00 in 0 W/m2
23:59 66.5 °F 64.4 °F 29.89 in Calm     93% 0.00 in 0 W/m2
Country Meadow, Clay, NY, USA
Compliments of Weather Underground - 2 mb